Time;durP1;ratioP1;P1;durP2;ratioP2;P2;SDS_P1;SDS_P2;PMS_P1;PMS_P2;Temp;Humidity;BMP_temperature;BMP_pressure;BME280_temperature;BME280_humidity;BME280_pressure;Samples;Min_cycle;Max_cycle;Signal;HPM_P1;HPM_P2
2022/09/10 00:01:31;;;;;;;26.77;18.80;;;;;;;20.34;100.00;99092.84;5073206;28;20637;-84
2022/09/10 00:03:58;;;;;;;25.10;18.73;;;;;;;20.34;100.00;99092.84;5071694;28;20169;-87
2022/09/10 00:06:26;;;;;;;24.40;18.93;;;;;;;19.45;100.00;98935.22;5073856;28;20168;-86
2022/09/10 00:08:53;;;;;;;24.30;18.33;;;;;;;20.32;100.00;99075.72;5072387;28;20180;-87
2022/09/10 00:11:19;;;;;;;23.57;18.57;;;;;;;19.50;100.00;98931.81;5072769;28;20157;-86
2022/09/10 00:13:45;;;;;;;25.97;19.20;;;;;;;19.18;100.00;98874.38;5072735;28;20684;-85
2022/09/10 00:16:13;;;;;;;24.67;18.33;;;;;;;20.45;99.97;99088.56;5072408;28;20247;-86
2022/09/10 00:18:39;;;;;;;24.90;18.30;;;;;;;20.36;100.00;99085.97;5072352;28;20204;-85
2022/09/10 00:21:09;;;;;;;25.03;18.27;;;;;;;19.74;100.00;98988.31;5071903;28;20172;-86
2022/09/10 00:23:35;;;;;;;23.33;18.60;;;;;;;20.29;100.00;99091.13;5088083;28;20176;-86
2022/09/10 00:26:09;;;;;;;26.17;19.40;;;;;;;19.62;100.00;99015.66;5071211;28;20625;-86
2022/09/10 00:28:35;;;;;;;24.60;18.70;;;;;;;20.24;100.00;99093.72;5072591;28;20160;-86
2022/09/10 00:31:02;;;;;;;25.83;19.57;;;;;;;19.98;100.00;99031.13;5072646;28;20183;-86
2022/09/10 00:33:28;;;;;;;22.93;18.60;;;;;;;20.07;100.00;99084.25;5072268;28;20727;-85
2022/09/10 00:35:54;;;;;;;22.20;18.13;;;;;;;20.20;100.00;99099.66;5072585;28;20157;-86
2022/09/10 00:38:19;;;;;;;25.17;19.10;;;;;;;19.69;100.00;98991.72;5072586;28;20188;-86
2022/09/10 00:40:45;;;;;;;23.37;18.93;;;;;;;20.27;100.00;99088.53;5072466;28;20218;-86
2022/09/10 00:43:20;;;;;;;25.87;19.00;;;;;;;20.02;99.84;99040.56;5072892;28;20172;-86
2022/09/10 00:45:53;;;;;;;25.93;19.37;;;;;;;19.63;99.88;98968.59;5081753;28;20160;-85
2022/09/10 00:48:27;;;;;;;22.60;18.67;;;;;;;20.17;100.00;99093.66;5079631;28;20260;-86
2022/09/10 00:50:54;;;;;;;22.47;18.90;;;;;;;18.42;100.00;98778.50;5075806;28;20156;-86
2022/09/10 00:53:23;;;;;;;22.50;18.20;;;;;;;19.21;100.00;98918.03;5074244;28;20168;-87
2022/09/10 00:55:54;;;;;;;24.27;19.30;;;;;;;20.03;99.89;99049.97;5073494;28;20713;-87
2022/09/10 00:58:21;;;;;;;26.80;19.50;;;;;;;19.78;99.84;99025.97;5074411;28;20184;-87
2022/09/10 01:00:47;;;;;;;24.57;19.13;;;;;;;20.26;100.00;99104.84;5078189;28;20620;-86
2022/09/10 01:03:15;;;;;;;23.03;18.47;;;;;;;19.31;100.00;98959.09;5075500;28;20289;-86
2022/09/10 01:05:43;;;;;;;27.87;19.93;;;;;;;20.06;100.00;99098.81;5072337;28;20693;-86
2022/09/10 01:08:17;;;;;;;21.83;18.70;;;;;;;20.13;100.00;99089.38;5072238;28;20161;-85
2022/09/10 01:11:05;;;;;;;23.10;18.80;;;;;;;20.03;100.00;99088.50;5071893;28;20230;-86
2022/09/10 01:13:55;;;;;;;24.73;18.70;;;;;;;20.03;100.00;99104.78;5001394;28;20186;-87
2022/09/10 01:16:36;;;;;;;24.80;18.40;;;;;;;20.05;100.00;99094.53;5027263;28;20175;-84
2022/09/10 01:19:45;;;;;;;22.57;18.73;;;;;;;20.09;100.00;99093.66;5023362;28;20241;-86
2022/09/10 01:22:21;;;;;;;23.93;18.17;;;;;;;16.22;100.00;98447.47;5014243;28;20162;-85
2022/09/10 01:24:55;;;;;;;27.20;18.20;;;;;;;20.19;100.00;99086.81;5015066;28;20193;-85
2022/09/10 01:27:38;;;;;;;22.30;17.67;;;;;;;18.78;100.00;98845.28;5014921;28;20161;-84
2022/09/10 01:30:06;;;;;;;25.23;18.93;;;;;;;20.06;100.00;99100.50;5017644;28;20167;-83
2022/09/10 01:32:48;;;;;;;22.70;18.77;;;;;;;17.04;100.00;98653.28;5017883;28;20644;-84
2022/09/10 01:35:17;;;;;;;24.57;18.93;;;;;;;17.09;100.00;98682.28;5015225;28;20222;-84
2022/09/10 01:37:52;;;;;;;23.17;18.83;;;;;;;18.22;100.00;98865.53;5014990;28;20310;-84
2022/09/10 01:40:18;;;;;;;25.13;18.90;;;;;;;18.90;100.00;98950.44;4999972;28;20173;-85
2022/09/10 01:42:44;;;;;;;27.97;19.33;;;;;;;19.06;100.00;98977.88;5015087;28;20178;-84
2022/09/10 01:45:15;;;;;;;22.93;18.53;;;;;;;19.91;100.00;99083.38;5015092;28;20194;-85
2022/09/10 01:47:52;;;;;;;25.43;18.57;;;;;;;19.92;100.00;99091.06;5014953;28;20167;-84
2022/09/10 01:50:25;;;;;;;25.70;18.10;;;;;;;16.92;100.00;98627.63;5038482;28;20180;-84
2022/09/10 01:53:09;;;;;;;25.57;19.07;;;;;;;19.88;100.00;99098.78;5076287;28;20161;-84
2022/09/10 01:55:47;;;;;;;27.50;19.27;;;;;;;19.88;100.00;99094.50;5076561;28;20161;-85
2022/09/10 01:58:34;;;;;;;26.27;19.47;;;;;;;19.94;100.00;99096.22;5075748;28;20181;-85
2022/09/10 02:01:25;;;;;;;26.13;19.27;;;;;;;19.68;100.00;99054.22;5076583;28;20161;-85
2022/09/10 02:03:56;;;;;;;26.10;19.27;;;;;;;19.91;100.00;99083.38;5076431;28;20256;-85
2022/09/10 02:06:26;;;;;;;24.93;18.53;;;;;;;19.68;100.00;99055.06;5077446;28;20519;-85
2022/09/10 02:08:55;;;;;;;22.57;19.33;;;;;;;18.93;100.00;98927.38;5091189;28;20160;-85
2022/09/10 02:11:21;;;;;;;23.87;18.63;;;;;;;19.71;100.00;99067.94;5075938;28;20156;-84
2022/09/10 02:13:47;;;;;;;24.50;18.83;;;;;;;19.69;100.00;99061.06;5076327;28;20521;-84
2022/09/10 02:16:36;;;;;;;23.23;18.57;;;;;;;19.66;100.00;99077.34;5075377;28;20152;-87
2022/09/10 02:19:03;;;;;;;22.40;18.67;;;;;;;19.85;100.00;99078.22;5076330;28;20185;-85
2022/09/10 02:21:30;;;;;;;23.37;18.97;;;;;;;19.71;100.00;99087.63;5075027;28;20184;-85
2022/09/10 02:24:08;;;;;;;26.20;18.70;;;;;;;19.42;100.00;99047.31;5074099;28;20256;-85
2022/09/10 02:26:38;;;;;;;23.33;19.07;;;;;;;19.64;100.00;99094.44;5075793;28;20228;-86
2022/09/10 02:29:05;;;;;;;25.30;19.47;;;;;;;18.80;100.00;98988.03;5075267;28;20621;-84
2022/09/10 02:31:31;;;;;;;23.80;18.83;;;;;;;18.76;100.00;98994.00;5074810;28;20223;-84
2022/09/10 02:33:56;;;;;;;23.50;19.20;;;;;;;19.32;100.00;99101.16;5074573;28;20220;-84
2022/09/10 02:36:24;;;;;;;24.47;18.73;;;;;;;19.34;100.00;99100.31;5076360;28;20160;-84
2022/09/10 02:38:51;;;;;;;25.03;19.33;;;;;;;18.85;100.00;99011.13;5076135;28;20188;-87
2022/09/10 02:41:16;;;;;;;24.30;18.93;;;;;;;18.38;100.00;98922.84;5076047;28;20218;-85
2022/09/10 02:43:45;;;;;;;23.90;19.33;;;;;;;19.31;100.00;99079.75;5076113;28;20168;-85
2022/09/10 02:46:11;;;;;;;26.97;18.93;;;;;;;19.37;100.00;99077.22;5075221;28;20149;-86
2022/09/10 02:48:38;;;;;;;25.27;19.07;;;;;;;18.92;100.00;99015.47;5076730;28;20584;-85
2022/09/10 02:51:04;;;;;;;28.07;19.50;;;;;;;19.04;100.00;99038.59;5075792;28;20176;-88
2022/09/10 02:53:30;;;;;;;25.03;19.57;;;;;;;18.35;100.00;98918.56;5075364;28;20621;-86
2022/09/10 02:55:56;;;;;;;24.83;18.53;;;;;;;19.41;100.00;99101.22;5074893;28;20165;-86
2022/09/10 02:58:22;;;;;;;21.97;18.67;;;;;;;19.40;100.00;99096.94;5074912;28;20191;-87
2022/09/10 03:00:47;;;;;;;23.90;19.03;;;;;;;18.89;100.00;99018.00;5074280;28;20161;-86
2022/09/10 03:03:13;;;;;;;26.43;18.40;;;;;;;19.42;100.00;99106.34;5076232;28;20527;-87
2022/09/10 03:05:40;;;;;;;25.13;18.70;;;;;;;19.36;100.00;99098.63;5085276;28;20164;-87
2022/09/10 03:08:06;;;;;;;27.23;19.50;;;;;;;19.01;100.00;99037.75;5089869;28;20579;-87
2022/09/10 03:10:32;;;;;;;25.33;18.80;;;;;;;19.21;100.00;99113.06;5075521;28;20165;-86
2022/09/10 03:12:58;;;;;;;27.03;19.37;;;;;;;19.29;100.00;99112.25;5075047;28;20640;-85
2022/09/10 03:15:24;;;;;;;24.90;19.07;;;;;;;19.27;100.00;99111.41;5074754;28;20248;-86
2022/09/10 03:17:50;;;;;;;27.77;19.13;;;;;;;18.89;100.00;99022.28;5074701;28;20279;-85
2022/09/10 03:20:17;;;;;;;29.23;20.70;;;;;;;18.39;100.00;98930.56;5073989;28;20253;-86
2022/09/10 03:22:42;;;;;;;24.33;19.40;;;;;;;19.32;100.00;99104.59;5074950;28;20676;-86
2022/09/10 03:25:08;;;;;;;27.77;19.70;;;;;;;17.99;100.00;98892.75;5074645;28;20240;-87
2022/09/10 03:27:34;;;;;;;25.10;18.87;;;;;;;19.43;100.00;99100.38;5072374;28;20637;-86
2022/09/10 03:30:00;;;;;;;27.13;19.47;;;;;;;18.63;100.00;98950.34;5074112;28;20165;-86
2022/09/10 03:32:25;;;;;;;25.67;19.37;;;;;;;18.91;100.00;99016.31;5072602;28;20264;-86
2022/09/10 03:34:51;;;;;;;28.00;19.43;;;;;;;19.25;100.00;99078.88;5073011;28;20223;-86
2022/09/10 03:37:17;;;;;;;30.87;18.83;;;;;;;18.65;100.00;98987.97;5073670;28;20193;-86
2022/09/10 03:39:42;;;;;;;22.97;18.77;;;;;;;18.13;100.00;98894.53;5074096;28;20183;-86
2022/09/10 03:42:08;;;;;;;22.87;19.53;;;;;;;18.92;100.00;99045.38;5074068;28;20644;-86
2022/09/10 03:44:34;;;;;;;24.60;18.80;;;;;;;19.27;100.00;99100.28;5074061;28;20684;-86
2022/09/10 03:47:00;;;;;;;26.70;18.93;;;;;;;19.20;100.00;99106.25;5076109;28;20219;-86
2022/09/10 03:49:26;;;;;;;23.07;18.67;;;;;;;19.13;100.00;99107.91;5073186;28;20255;-86
2022/09/10 03:51:52;;;;;;;28.33;19.57;;;;;;;18.98;100.00;99071.06;5073088;28;20171;-86
2022/09/10 03:54:18;;;;;;;23.57;19.07;;;;;;;18.08;100.00;98897.91;5073910;28;20553;-87
2022/09/10 03:56:43;;;;;;;26.60;19.90;;;;;;;19.18;100.00;99106.22;5075424;28;20173;-88
2022/09/10 03:59:09;;;;;;;23.93;19.37;;;;;;;18.68;100.00;99033.28;5073952;28;20184;-86
2022/09/10 04:01:34;;;;;;;25.70;19.83;;;;;;;18.91;100.00;99082.13;5077484;28;20183;-87
2022/09/10 04:04:01;;;;;;;31.70;19.97;;;;;;;19.10;100.00;99096.78;5075491;28;20156;-86
2022/09/10 04:06:27;;;;;;;26.90;19.77;;;;;;;16.23;100.00;98621.97;5074001;28;20165;-87
2022/09/10 04:08:52;;;;;;;22.57;18.63;;;;;;;18.87;100.00;99042.78;5077754;28;20188;-86
2022/09/10 04:11:18;;;;;;;24.50;19.40;;;;;;;19.10;100.00;99102.75;5073232;28;20212;-86
2022/09/10 04:13:47;;;;;;;22.13;18.40;;;;;;;19.16;100.00;99104.50;5073489;28;20167;-86
2022/09/10 04:16:15;;;;;;;24.83;19.23;;;;;;;18.01;100.00;98909.00;5092868;28;20187;-90
2022/09/10 04:18:41;;;;;;;26.60;19.60;;;;;;;19.32;100.00;99102.00;5091785;28;20713;-89
2022/09/10 04:21:06;;;;;;;31.63;21.27;;;;;;;16.37;100.00;98621.22;5080807;28;20169;-88
2022/09/10 04:23:32;;;;;;;36.40;20.67;;;;;;;18.99;100.00;99037.72;5077036;28;20524;-86
2022/09/10 04:25:57;;;;;;;26.83;19.07;;;;;;;19.03;100.00;99029.19;5076282;28;20195;-86
2022/09/10 04:28:23;;;;;;;22.73;18.50;;;;;;;17.71;100.00;98796.13;5074359;28;20163;-85
2022/09/10 04:30:49;;;;;;;24.60;18.80;;;;;;;19.58;100.00;99111.56;5074531;28;20167;-86
2022/09/10 04:33:15;;;;;;;25.80;18.87;;;;;;;19.38;100.00;99076.41;5073340;28;20148;-86
2022/09/10 04:35:42;;;;;;;22.57;18.93;;;;;;;19.66;100.00;99110.72;5073936;28;20172;-87
2022/09/10 04:38:08;;;;;;;25.93;18.47;;;;;;;19.64;100.00;99101.31;5077078;28;20223;-88
2022/09/10 04:40:35;;;;;;;31.77;19.67;;;;;;;19.12;100.00;98998.41;5073684;28;20204;-88
2022/09/10 04:43:01;;;;;;;23.73;18.20;;;;;;;19.33;100.00;99024.16;5073820;28;20175;-87
2022/09/10 04:45:26;;;;;;;23.13;17.83;;;;;;;18.95;99.89;98935.94;5073719;28;20680;-86
2022/09/10 04:47:53;;;;;;;21.37;17.70;;;;;;;19.91;99.07;99093.66;5071820;28;20237;-85
2022/09/10 04:50:19;;;;;;;24.97;18.70;;;;;;;18.51;98.46;98850.34;5074020;28;20180;-87
2022/09/10 04:52:44;;;;;;;25.37;18.30;;;;;;;19.83;98.92;99080.78;5073328;28;20165;-86
2022/09/10 04:55:10;;;;;;;22.93;18.60;;;;;;;19.93;98.86;99089.38;5073218;28;20729;-86
2022/09/10 04:57:36;;;;;;;23.27;18.33;;;;;;;19.97;98.28;99091.06;5073325;28;20196;-87
2022/09/10 05:00:06;;;;;;;28.33;18.50;;;;;;;18.58;97.10;98839.22;5072737;28;20229;-86
2022/09/10 05:02:32;;;;;;;22.13;18.23;;;;;;;20.09;96.97;99092.81;5076057;28;20224;-87
2022/09/10 05:04:58;;;;;;;24.90;18.73;;;;;;;19.30;96.39;98936.88;5078854;28;20250;-87
2022/09/10 05:07:23;;;;;;;30.30;18.90;;;;;;;20.34;96.15;99110.84;5091283;28;20180;-85
2022/09/10 05:09:49;;;;;;;25.00;19.13;;;;;;;19.54;95.49;98971.16;5088681;28;20184;-87
2022/09/10 05:12:14;;;;;;;29.60;19.43;;;;;;;18.63;94.76;98820.44;5073210;28;20165;-86
2022/09/10 05:14:39;;;;;;;29.70;20.67;;;;;;;20.50;94.80;99133.13;5072744;28;20251;-87
2022/09/10 05:17:05;;;;;;;25.93;19.57;;;;;;;18.60;93.84;98768.28;5071682;28;20621;-86
2022/09/10 05:19:30;;;;;;;27.53;19.10;;;;;;;19.32;93.86;98895.78;5073425;28;20165;-84
2022/09/10 05:21:56;;;;;;;27.50;20.03;;;;;;;20.48;93.39;99067.13;5072489;28;20175;-83
2022/09/10 05:24:21;;;;;;;29.83;19.83;;;;;;;20.45;92.26;99031.97;5072560;28;20546;-83
2022/09/10 05:26:47;;;;;;;25.10;19.90;;;;;;;19.73;92.10;98893.25;5078403;28;20175;-83
2022/09/10 05:29:12;;;;;;;28.00;20.03;;;;;;;21.18;91.33;99107.28;5085315;28;20172;-82
2022/09/10 05:31:39;;;;;;;25.23;18.27;;;;;;;21.16;91.16;99115.88;5081105;28;20240;-83
2022/09/10 05:34:05;;;;;;;25.33;19.77;;;;;;;21.20;90.44;99133.06;5078983;28;20225;-83
2022/09/10 05:36:30;;;;;;;27.60;20.30;;;;;;;21.27;90.79;99136.44;5077263;28;20265;-83
2022/09/10 05:38:59;;;;;;;24.97;19.47;;;;;;;21.17;89.12;99046.38;5075081;28;20571;-83
2022/09/10 05:41:26;;;;;;;29.23;20.70;;;;;;;21.69;87.85;99113.09;5072236;28;20156;-83
2022/09/10 05:43:53;;;;;;;26.90;18.50;;;;;;;21.53;86.30;99078.81;5073247;28;20157;-83
2022/09/10 05:46:18;;;;;;;28.03;19.10;;;;;;;21.76;85.86;99125.06;5071939;28;20157;-83
2022/09/10 05:48:44;;;;;;;26.20;20.17;;;;;;;21.81;85.49;99128.47;5073509;28;20167;-85
2022/09/10 05:51:10;;;;;;;30.10;21.00;;;;;;;20.62;86.03;98930.78;5072950;28;20605;-82
2022/09/10 05:53:36;;;;;;;31.87;20.77;;;;;;;21.86;85.57;99125.88;5072647;28;20169;-83
2022/09/10 05:56:01;;;;;;;24.93;18.80;;;;;;;22.04;84.69;99129.22;5075768;28;20157;-82
2022/09/10 05:58:28;;;;;;;26.70;18.70;;;;;;;22.15;82.92;99083.59;5073957;28;20188;-84
2022/09/10 06:00:54;;;;;;;25.63;18.33;;;;;;;22.55;81.63;99129.69;5072075;28;20184;-83
2022/09/10 06:03:20;;;;;;;25.13;18.33;;;;;;;22.87;80.51;99131.16;5071075;28;20621;-83
2022/09/10 06:05:52;;;;;;;24.23;17.80;;;;;;;22.53;80.22;99091.00;5072407;28;20161;-83
2022/09/10 06:08:21;;;;;;;24.60;18.53;;;;;;;20.91;80.78;98862.00;5072036;28;20202;-83
2022/09/10 06:10:57;;;;;;;25.77;19.23;;;;;;;22.50;82.03;99123.69;5071966;28;20157;-83
2022/09/10 06:13:23;;;;;;;24.00;17.07;;;;;;;22.83;80.43;99120.84;5071854;28;20551;-83
2022/09/10 06:15:49;;;;;;;21.80;16.93;;;;;;;23.06;78.80;99107.69;5073855;28;20341;-83
2022/09/10 06:18:14;;;;;;;21.57;16.37;;;;;;;22.16;78.82;98981.31;5075128;28;20282;-83
2022/09/10 06:20:39;;;;;;;21.47;16.00;;;;;;;22.39;78.15;98999.97;5075354;28;20179;-83
2022/09/10 06:23:05;;;;;;;22.83;16.97;;;;;;;23.42;76.98;99125.41;5075145;28;20230;-84
2022/09/10 06:25:30;;;;;;;20.27;15.83;;;;;;;22.27;76.90;98982.06;5074920;28;20205;-83
2022/09/10 06:27:56;;;;;;;23.37;16.73;;;;;;;23.40;76.46;99132.31;5074909;28;20214;-83
2022/09/10 06:30:21;;;;;;;21.70;16.40;;;;;;;23.44;75.00;99095.22;5075728;28;20675;-85
2022/09/10 06:32:46;;;;;;;19.33;15.70;;;;;;;23.60;75.51;99152.72;5074748;28;20214;-83
2022/09/10 06:35:12;;;;;;;23.30;17.07;;;;;;;21.68;76.84;98921.53;5074404;28;20212;-83
2022/09/10 06:37:38;;;;;;;19.70;16.07;;;;;;;22.64;78.04;99140.81;5076133;28;20239;-83
2022/09/10 06:40:04;;;;;;;22.63;16.30;;;;;;;22.11;79.03;99043.22;5076843;28;20164;-83
2022/09/10 06:42:31;;;;;;;21.60;16.00;;;;;;;22.73;77.53;99053.00;5075552;28;20197;-83
2022/09/10 06:44:58;;;;;;;28.43;19.13;;;;;;;23.83;75.52;99125.72;5074453;28;20263;-83
2022/09/10 06:47:24;;;;;;;19.73;15.57;;;;;;;23.95;72.96;99130.69;5073923;28;20208;-82
2022/09/10 06:49:51;;;;;;;27.53;16.60;;;;;;;22.96;72.49;99003.69;5074890;28;20720;-82
2022/09/10 06:52:16;;;;;;;19.47;15.03;;;;;;;23.51;72.86;99078.78;5074784;28;20518;-82
2022/09/10 06:54:42;;;;;;;27.00;16.10;;;;;;;23.52;72.94;99072.72;5074945;28;20176;-81
2022/09/10 06:57:07;;;;;;;17.87;14.47;;;;;;;22.89;71.30;98946.09;5074075;28;20175;-81
2022/09/10 06:59:33;;;;;;;16.87;14.77;;;;;;;23.70;70.63;99045.75;5074756;28;20589;-82
2022/09/10 07:01:59;;;;;;;20.07;14.17;;;;;;;24.51;69.32;99093.63;5075028;28;20160;-82
2022/09/10 07:04:24;;;;;;;22.43;14.57;;;;;;;24.70;68.27;99114.84;5075071;28;20161;-82
2022/09/10 07:06:50;;;;;;;16.73;13.60;;;;;;;24.71;67.51;99116.56;5074425;28;20534;-81
2022/09/10 07:09:15;;;;;;;16.80;13.43;;;;;;;23.88;66.08;98926.53;5074287;28;20188;-81
2022/09/10 07:11:41;;;;;;;19.60;13.67;;;;;;;24.67;66.54;99122.69;5075116;28;20172;-81
2022/09/10 07:14:10;;;;;;;17.10;13.77;;;;;;;23.73;67.03;98974.19;5074334;28;20636;-80
2022/09/10 07:16:35;;;;;;;20.73;14.43;;;;;;;24.50;67.25;99111.78;5074462;28;20153;-82
2022/09/10 07:19:01;;;;;;;19.87;13.27;;;;;;;24.44;65.36;99044.59;5074661;28;20547;-82
2022/09/10 07:21:27;;;;;;;16.37;13.10;;;;;;;23.71;65.36;98972.50;5074318;28;20167;-82
2022/09/10 07:24:02;;;;;;;20.70;13.73;;;;;;;24.15;65.79;99023.50;5074004;28;20172;-81
2022/09/10 07:26:28;;;;;;;18.13;12.40;;;;;;;24.10;64.58;99018.44;5072935;28;20164;-81
2022/09/10 07:28:54;;;;;;;18.07;12.70;;;;;;;25.29;63.11;99169.94;5074205;28;20186;-81
2022/09/10 07:31:23;;;;;;;15.17;12.93;;;;;;;25.27;63.57;99169.13;5075528;28;20199;-83
2022/09/10 07:33:49;;;;;;;18.70;12.57;;;;;;;25.62;62.22;99164.13;5074647;28;20773;-83
2022/09/10 07:36:16;;;;;;;14.90;11.90;;;;;;;24.57;62.35;98955.47;5077502;28;20160;-82
2022/09/10 07:38:42;;;;;;;14.97;11.40;;;;;;;24.80;59.85;98901.53;5075019;28;20275;-82
2022/09/10 07:41:12;;;;;;;16.95;12.35;;;;;;;26.26;58.19;99055.41;5075475;28;20201;-83
2022/09/10 07:43:39;;;;;;;15.32;11.73;;;;;;;26.61;58.01;99113.41;5078678;28;20241;-83
2022/09/10 07:46:05;;;;;;;18.58;12.60;;;;;;;26.69;58.21;99127.03;5073461;28;20234;-82
2022/09/10 07:48:31;;;;;;;13.77;11.95;;;;;;;27.05;57.04;99125.25;5078938;28;20187;-82
2022/09/10 07:51:02;;;;;;;15.30;11.75;;;;;;;27.29;56.04;99078.63;5085299;28;20654;-83
2022/09/10 07:53:27;;;;;;;15.70;11.38;;;;;;;27.93;54.09;99077.59;5073669;28;20170;-85
2022/09/10 07:56:06;;;;;;;17.13;12.20;;;;;;;27.92;53.20;99082.81;5073003;28;20600;-84
2022/09/10 07:58:34;;;;;;;14.73;11.60;;;;;;;28.24;52.88;99097.47;5074387;28;20200;-86
2022/09/10 08:01:01;;;;;;;13.98;11.43;;;;;;;28.03;52.02;99057.34;5073275;28;20156;-84
2022/09/10 08:03:28;;;;;;;17.58;12.02;;;;;;;28.12;53.79;99127.34;5070406;28;20271;-85
2022/09/10 08:05:54;;;;;;;13.23;11.82;;;;;;;27.87;54.35;99128.97;5072113;28;20270;-85
2022/09/10 08:08:21;;;;;;;15.70;11.80;;;;;;;27.00;55.51;99029.25;5071597;28;20578;-85
2022/09/10 08:10:48;;;;;;;15.68;12.13;;;;;;;27.44;55.52;99135.41;5072258;28;20574;-83
2022/09/10 08:13:15;;;;;;;13.90;11.90;;;;;;;27.72;54.63;99142.41;5072650;28;20164;-84
2022/09/10 08:15:42;;;;;;;17.42;12.18;;;;;;;27.75;53.67;99061.66;5072539;28;20164;-84
2022/09/10 08:18:09;;;;;;;17.85;12.15;;;;;;;28.10;53.34;99095.31;5071645;28;20277;-84
2022/09/10 08:20:34;;;;;;;15.45;11.63;;;;;;;27.61;54.13;99048.25;5073183;28;20583;-85
2022/09/10 08:23:01;;;;;;;16.63;12.05;;;;;;;28.23;52.77;99052.34;5072807;28;20185;-85
2022/09/10 08:25:26;;;;;;;14.63;11.73;;;;;;;27.94;52.24;98995.97;5073041;28;20229;-85
2022/09/10 08:27:53;;;;;;;14.75;11.27;;;;;;;28.85;50.26;99057.16;5074338;28;20160;-85
2022/09/10 08:30:18;;;;;;;15.38;12.43;;;;;;;28.12;50.83;99031.00;5073583;28;20644;-85
2022/09/10 08:32:44;;;;;;;16.45;12.18;;;;;;;28.04;53.18;99082.47;5073574;28;20162;-85
2022/09/10 08:35:09;;;;;;;16.75;12.18;;;;;;;25.39;54.00;98685.03;5074372;28;20231;-85
2022/09/10 08:37:34;;;;;;;16.48;11.68;;;;;;;26.18;54.52;98854.91;5073046;28;20208;-85
2022/09/10 08:40:00;;;;;;;18.50;12.50;;;;;;;25.66;56.17;98852.84;5077787;28;20182;-84
2022/09/10 08:42:38;;;;;;;16.55;12.63;;;;;;;27.42;56.20;99150.22;5080606;28;20218;-84
2022/09/10 08:45:15;;;;;;;16.65;12.60;;;;;;;27.57;57.66;99151.53;5094786;28;20219;-85
2022/09/10 08:47:52;;;;;;;15.38;11.90;;;;;;;27.77;54.32;99023.47;5094203;28;20165;-85
2022/09/10 08:50:27;;;;;;;13.95;12.00;;;;;;;28.38;54.42;99122.13;5094091;28;20186;-85
2022/09/10 08:52:56;;;;;;;19.73;13.05;;;;;;;26.71;53.17;98819.59;5093741;28;20570;-85
2022/09/10 08:55:29;;;;;;;18.35;12.77;;;;;;;28.13;54.49;99110.78;5091663;28;20311;-85
2022/09/10 08:58:17;;;;;;;15.60;12.52;;;;;;;28.23;54.49;99108.75;5091237;28;20267;-84
2022/09/10 09:00:44;;;;;;;17.50;12.52;;;;;;;27.78;53.53;99009.53;5092927;28;20161;-84
2022/09/10 09:03:36;;;;;;;16.60;12.38;;;;;;;28.41;52.15;99038.69;5093185;28;20195;-85
2022/09/10 09:06:04;;;;;;;19.33;12.95;;;;;;;29.02;51.07;99052.19;5092622;28;20173;-85
2022/09/10 09:08:40;;;;;;;16.40;12.23;;;;;;;29.43;50.55;99095.88;5092590;28;20246;-84
2022/09/10 09:11:28;;;;;;;16.92;12.68;;;;;;;29.73;49.98;99088.66;5092744;28;20657;-84
2022/09/10 09:14:15;;;;;;;14.70;12.73;;;;;;;30.14;48.32;99100.09;5092850;28;20201;-85
2022/09/10 09:17:06;;;;;;;15.82;12.50;;;;;;;29.96;49.54;99098.22;5092033;28;20179;-85
2022/09/10 09:19:50;;;;;;;20.83;12.10;;;;;;;29.97;47.81;99027.66;5092738;28;20190;-85
2022/09/10 09:22:35;;;;;;;14.80;12.40;;;;;;;30.14;48.33;99082.66;5092913;28;20202;-85
2022/09/10 09:25:20;;;;;;;13.90;12.30;;;;;;;29.96;46.67;98918.94;5092880;28;20164;-85
2022/09/10 09:27:48;;;;;;;20.25;12.60;;;;;;;29.83;46.57;98921.19;5092269;28;20166;-85
2022/09/10 09:30:22;;;;;;;16.77;12.30;;;;;;;29.48;47.84;98906.13;5090712;28;20654;-85
2022/09/10 09:32:48;;;;;;;13.88;12.25;;;;;;;28.89;48.71;98890.22;5092487;28;20167;-84
2022/09/10 09:35:40;;;;;;;14.85;12.50;;;;;;;29.74;49.08;99030.31;5092175;28;20220;-85
2022/09/10 09:38:05;;;;;;;14.32;12.02;;;;;;;30.68;47.62;99053.44;5092426;28;20190;-85
2022/09/10 09:40:36;;;;;;;17.77;11.55;;;;;;;30.56;46.25;99051.34;5093455;28;20640;-85
2022/09/10 09:43:24;;;;;;;15.90;11.77;;;;;;;30.50;47.36;99050.72;5117132;28;20179;-85
2022/09/10 09:45:52;;;;;;;15.60;11.65;;;;;;;30.87;45.38;98994.19;5097027;28;20188;-85
2022/09/10 09:48:19;;;;;;;14.73;11.85;;;;;;;30.86;45.23;99026.47;5093209;28;20654;-84
2022/09/10 09:50:48;;;;;;;20.35;12.48;;;;;;;30.80;45.55;99011.06;5095451;28;20630;-85
2022/09/10 09:53:21;;;;;;;17.33;12.02;;;;;;;31.49;44.02;99038.44;5096924;28;20568;-84
2022/09/10 09:55:58;;;;;;;15.82;12.48;;;;;;;31.40;44.17;99001.34;5096860;28;20163;-84
2022/09/10 09:58:25;;;;;;;18.63;12.05;;;;;;;31.17;44.37;99014.66;5098512;28;20194;-85
2022/09/10 10:01:04;;;;;;;15.02;12.30;;;;;;;30.70;45.36;98974.94;5099816;28;20210;-85
2022/09/10 10:03:57;;;;;;;16.73;11.98;;;;;;;30.91;44.87;99018.41;5095416;28;20167;-85
2022/09/10 10:06:25;;;;;;;20.73;12.77;;;;;;;30.59;45.52;98967.56;5095717;28;20156;-85
2022/09/10 10:09:01;;;;;;;18.38;12.38;;;;;;;29.94;47.14;98993.00;5095854;28;20216;-85
2022/09/10 10:12:03;;;;;;;17.05;12.18;;;;;;;30.07;47.31;98999.41;5095879;28;20173;-85
2022/09/10 10:14:31;;;;;;;15.95;12.07;;;;;;;30.42;45.25;99000.56;5053432;28;20259;-85
2022/09/10 10:16:59;;;;;;;16.58;11.52;;;;;;;30.81;44.59;98999.69;5053796;28;20180;-85
2022/09/10 10:19:35;;;;;;;15.18;13.00;;;;;;;30.58;45.00;98997.22;5053474;28;20752;-86
2022/09/10 10:22:20;;;;;;;19.48;12.25;;;;;;;30.16;46.68;98997.25;5053485;28;20167;-85
2022/09/10 10:24:48;;;;;;;14.55;12.60;;;;;;;29.99;47.51;98976.25;5053833;28;20229;-86
2022/09/10 10:27:31;;;;;;;16.67;12.48;;;;;;;29.44;46.79;98899.34;5053650;28;20184;-86
2022/09/10 10:30:15;;;;;;;15.35;12.60;;;;;;;30.20;46.26;98984.94;5053396;28;20157;-86
2022/09/10 10:32:50;;;;;;;16.20;12.82;;;;;;;29.59;46.28;98890.88;5053676;28;20165;-87
2022/09/10 10:35:33;;;;;;;14.50;12.13;;;;;;;30.69;45.63;98975.84;5053834;28;20281;-87
2022/09/10 10:38:21;;;;;;;14.88;12.63;;;;;;;30.65;45.49;98966.44;5036201;28;20220;-86
2022/09/10 10:40:55;;;;;;;19.60;12.90;;;;;;;30.46;46.41;98969.03;5053491;28;20167;-87
2022/09/10 10:43:49;;;;;;;13.73;12.32;;;;;;;30.95;45.35;98963.34;5053098;28;20175;-87
2022/09/10 10:46:30;;;;;;;17.08;12.90;;;;;;;30.30;43.68;98800.75;5053763;28;20241;-87
2022/09/10 10:49:27;;;;;;;20.48;12.93;;;;;;;31.11;43.65;98954.78;5053227;28;20242;-87
2022/09/10 10:52:11;;;;;;;15.73;12.98;;;;;;;30.91;44.22;98951.28;5030133;28;20192;-85
2022/09/10 10:55:07;;;;;;;14.55;12.02;;;;;;;30.65;45.27;98948.16;5032439;28;20176;-85
2022/09/10 10:57:58;;;;;;;14.68;11.93;;;;;;;30.54;44.51;98885.91;5032371;28;20218;-85
2022/09/10 11:00:24;;;;;;;18.05;13.15;;;;;;;30.77;44.59;98887.47;5032530;28;20169;-84
2022/09/10 11:03:08;;;;;;;15.15;12.52;;;;;;;30.85;44.29;98919.31;5032526;28;20193;-85
2022/09/10 11:05:44;;;;;;;19.98;12.43;;;;;;;31.01;43.73;98891.59;5032781;28;20637;-84
2022/09/10 11:08:47;;;;;;;16.95;12.15;;;;;;;31.54;43.86;98929.13;5032008;28;20184;-85
2022/09/10 11:11:32;;;;;;;14.30;11.50;;;;;;;31.40;43.83;98922.84;5032131;28;20169;-85
2022/09/10 11:14:18;;;;;;;17.70;12.32;;;;;;;30.87;45.05;98920.97;5032445;28;20161;-84
2022/09/10 11:16:57;;;;;;;17.00;11.82;;;;;;;30.16;45.31;98837.94;5032062;28;20249;-83
2022/09/10 11:19:34;;;;;;;16.17;11.93;;;;;;;30.49;44.75;98861.75;5031471;28;20219;-83
2022/09/10 11:22:26;;;;;;;18.73;12.15;;;;;;;29.92;46.39;98835.56;5031797;28;20623;-85
2022/09/10 11:25:01;;;;;;;16.42;11.93;;;;;;;30.42;46.11;98923.03;5032110;28;20743;-83
2022/09/10 11:27:32;;;;;;;16.50;12.25;;;;;;;29.87;46.09;98827.09;5042063;28;20195;-84
2022/09/10 11:30:24;;;;;;;19.95;12.02;;;;;;;30.62;46.09;98911.69;5094696;28;20166;-85